Time;durP1;ratioP1;P1;durP2;ratioP2;P2;SDS_P1;SDS_P2;PMS_P1;PMS_P2;Temp;Humidity;BMP_temperature;BMP_pressure;BME280_temperature;BME280_humidity;BME280_pressure;Samples;Min_cycle;Max_cycle;Signal;HPM_P1;HPM_P2
2023/11/23 00:00:27;;;;;;;44.13;18.90;;;;;;;5.57;100.00;100952.00;5025614;28;20534;-75
2023/11/23 00:02:52;;;;;;;42.70;19.83;;;;;;;5.60;100.00;100964.16;5025620;28;20064;-75
2023/11/23 00:05:19;;;;;;;36.17;17.50;;;;;;;5.56;100.00;100958.25;5032082;28;20083;-75
2023/11/23 00:07:45;;;;;;;41.10;18.73;;;;;;;5.49;100.00;100959.72;5025418;28;20037;-75
2023/11/23 00:10:11;;;;;;;34.17;16.88;;;;;;;5.60;100.00;100950.91;5032605;28;20087;-75
2023/11/23 00:12:36;;;;;;;40.58;18.50;;;;;;;5.65;100.00;100935.47;5018857;28;20104;-75
2023/11/23 00:15:03;;;;;;;38.43;19.33;;;;;;;5.67;100.00;100941.47;5030837;28;20442;-75
2023/11/23 00:17:29;;;;;;;43.25;16.92;;;;;;;5.59;100.00;100928.00;5006307;28;20074;-75
2023/11/23 00:19:55;;;;;;;34.85;15.95;;;;;;;5.64;100.00;100931.13;5024389;28;20045;-74
2023/11/23 00:22:21;;;;;;;37.92;16.80;;;;;;;5.67;100.00;100934.38;5025419;28;20029;-75
2023/11/23 00:24:47;;;;;;;41.03;18.15;;;;;;;5.72;100.00;100924.22;5025065;28;20048;-75
2023/11/23 00:27:14;;;;;;;36.22;17.63;;;;;;;5.78;100.00;100928.16;5041760;28;20056;-75
2023/11/23 00:29:40;;;;;;;39.00;17.10;;;;;;;5.75;100.00;100909.88;5019519;28;20028;-75
2023/11/23 00:32:07;;;;;;;39.58;17.90;;;;;;;5.72;100.00;100907.50;5035014;28;20048;-75
2023/11/23 00:34:33;;;;;;;;;;;;;;;5.79;100.00;100905.19;5016929;28;20030;-75
2023/11/23 00:36:58;;;;;;;41.03;19.55;;;;;;;5.73;100.00;100901.22;5024046;28;19920;-75
2023/11/23 00:39:24;;;;;;;43.40;19.05;;;;;;;5.77;100.00;100894.72;5023959;28;20542;-75
2023/11/23 00:41:49;;;;;;;36.00;17.03;;;;;;;5.71;100.00;100888.13;5028620;28;20582;-75
2023/11/23 00:44:14;;;;;;;42.13;19.03;;;;;;;5.92;100.00;100903.16;5035380;28;20288;-75
2023/11/23 00:46:40;;;;;;;39.00;18.15;;;;;;;5.95;100.00;100887.06;5028658;28;20109;-75
2023/11/23 00:49:24;;;;;;;36.35;19.48;;;;;;;6.04;100.00;100891.59;5031159;28;20874;-75
2023/11/23 00:52:08;;;;;;;43.75;21.30;;;;;;;6.01;100.00;100881.22;5028162;28;20099;-75
2023/11/23 00:54:52;;;;;;;38.85;19.00;;;;;;;6.03;100.00;100881.94;5018615;28;20558;-75
2023/11/23 00:57:38;;;;;;;42.35;20.55;;;;;;;6.20;100.00;100880.50;5030444;28;20133;-75
2023/11/23 01:00:22;;;;;;;41.65;19.17;;;;;;;6.15;100.00;100877.41;5021552;28;20128;-75
2023/11/23 01:03:06;;;;;;;43.63;20.90;;;;;;;6.26;100.00;100890.59;5020743;28;20051;-75
2023/11/23 01:05:32;;;;;;;48.63;21.67;;;;;;;6.25;100.00;100883.63;5024356;28;20041;-75
2023/11/23 01:07:57;;;;;;;42.30;21.10;;;;;;;6.25;100.00;100888.06;5023799;28;20034;-75
2023/11/23 01:10:24;;;;;;;49.33;21.10;;;;;;;6.28;100.00;100899.28;5007093;28;20961;-75
2023/11/23 01:12:51;;;;;;;47.70;20.30;;;;;;;6.35;100.00;100888.97;5023515;28;20731;-75
2023/11/23 01:15:17;;;;;;;44.47;21.23;;;;;;;6.42;100.00;100889.31;5024615;28;20033;-75
2023/11/23 01:17:43;;;;;;;45.27;20.77;;;;;;;6.49;100.00;100890.44;5011022;28;20032;-75
2023/11/23 01:20:09;;;;;;;40.50;21.33;;;;;;;6.47;100.00;100879.13;5043669;28;20353;-75
2023/11/23 01:22:36;;;;;;;43.65;20.75;;;;;;;6.61;100.00;100880.59;5023937;28;20037;-75
2023/11/23 01:25:04;;;;;;;46.03;21.35;;;;;;;6.63;100.00;100879.47;5013536;28;20531;-75
2023/11/23 01:27:29;;;;;;;48.60;23.40;;;;;;;6.65;100.00;100864.28;5024511;28;20148;-74
2023/11/23 01:29:54;;;;;;;43.87;19.67;;;;;;;6.82;100.00;100859.28;4987606;28;20125;-75
2023/11/23 01:32:20;;;;;;;42.10;20.63;;;;;;;6.79;100.00;100862.19;5023149;28;20392;-75
2023/11/23 01:34:45;;;;;;;46.83;20.00;;;;;;;6.83;100.00;100850.34;5006980;28;20706;-75
2023/11/23 01:37:10;;;;;;;47.33;20.90;;;;;;;6.81;100.00;100841.69;5023484;28;20395;-75
2023/11/23 01:39:36;;;;;;;43.40;20.20;;;;;;;6.81;100.00;100842.50;5026007;28;20029;-74
2023/11/23 01:42:01;;;;;;;43.53;20.10;;;;;;;6.88;100.00;100842.81;5028609;28;20045;-75
2023/11/23 01:44:27;;;;;;;49.70;21.67;;;;;;;6.89;100.00;100839.19;5017443;28;20029;-75
2023/11/23 01:46:53;;;;;;;44.13;19.87;;;;;;;6.92;100.00;100836.25;5027210;28;20287;-74
2023/11/23 01:49:19;;;;;;;41.67;19.13;;;;;;;6.93;100.00;100833.47;5018128;28;20652;-75
2023/11/23 01:51:45;;;;;;;42.97;20.42;;;;;;;7.05;100.00;100833.38;5026804;28;20044;-75
2023/11/23 01:54:10;;;;;;;44.60;20.38;;;;;;;7.07;100.00;100829.59;5027120;28;20026;-75
2023/11/23 01:56:36;;;;;;;46.65;19.95;;;;;;;7.20;100.00;100826.66;5027907;28;20029;-75
2023/11/23 01:59:06;;;;;;;42.28;17.73;;;;;;;7.16;100.00;100825.25;5027037;28;20045;-75
2023/11/23 02:01:31;;;;;;;41.17;18.10;;;;;;;7.24;100.00;100800.69;5026507;28;20040;-75
2023/11/23 02:03:57;;;;;;;46.10;18.37;;;;;;;7.17;100.00;100806.53;5028131;28;20029;-75
2023/11/23 02:06:22;;;;;;;46.33;20.63;;;;;;;7.22;100.00;100807.94;5026637;28;20071;-75
2023/11/23 02:08:48;;;;;;;39.07;17.17;;;;;;;7.31;100.00;100791.19;5027039;28;20890;-76
2023/11/23 02:11:14;;;;;;;37.80;16.25;;;;;;;7.27;100.00;100784.47;5026610;28;20970;-75
2023/11/23 02:13:41;;;;;;;35.03;16.42;;;;;;;7.43;100.00;100794.53;5009857;28;20026;-75
2023/11/23 02:16:07;;;;;;;35.22;15.15;;;;;;;7.35;100.00;100774.81;5026627;28;20111;-75
2023/11/23 02:18:41;;;;;;;36.20;15.45;;;;;;;7.37;100.00;100779.97;5027335;28;20035;-76
2023/11/23 02:21:09;;;;;;;31.63;14.57;;;;;;;7.49;100.00;100783.31;5026450;28;20051;-76
2023/11/23 02:23:34;;;;;;;30.45;16.05;;;;;;;7.48;100.00;100785.13;5026330;28;20040;-75
2023/11/23 02:26:01;;;;;;;30.33;13.17;;;;;;;7.58;100.00;100767.34;5027857;28;20029;-76
2023/11/23 02:28:27;;;;;;;28.73;13.90;;;;;;;7.60;100.00;100765.41;5008724;28;20079;-76
2023/11/23 02:30:53;;;;;;;30.85;12.88;;;;;;;7.54;100.00;100781.09;5026258;28;20723;-76
2023/11/23 02:33:18;;;;;;;25.92;12.43;;;;;;;7.56;100.00;100764.03;5010477;28;20053;-76
2023/11/23 02:35:44;;;;;;;31.17;13.57;;;;;;;7.72;100.00;100773.22;5009842;28;20029;-76
2023/11/23 02:38:09;;;;;;;23.52;11.60;;;;;;;7.76;100.00;100777.28;5010352;28;20431;-75
2023/11/23 02:40:35;;;;;;;25.73;13.90;;;;;;;7.82;100.00;100784.69;5026259;28;20047;-76
2023/11/23 02:43:04;;;;;;;23.87;12.40;;;;;;;7.83;100.00;100786.34;5027570;28;20504;-76
2023/11/23 02:45:29;;;;;;;27.90;12.30;;;;;;;7.85;100.00;100751.66;5027066;28;20284;-76
2023/11/23 02:47:55;;;;;;;25.40;12.17;;;;;;;7.92;100.00;100758.91;5026353;28;20067;-76
2023/11/23 02:50:20;;;;;;;27.00;11.77;;;;;;;7.89;100.00;100745.91;5025935;28;20083;-76
2023/11/23 02:52:46;;;;;;;21.90;12.17;;;;;;;7.92;100.00;100728.81;5026079;28;20511;-76
2023/11/23 02:55:11;;;;;;;23.88;12.07;;;;;;;8.02;100.00;100743.75;5025358;28;20384;-76
2023/11/23 02:57:37;;;;;;;21.58;12.10;;;;;;;8.01;100.00;100747.41;5009488;28;20527;-76
2023/11/23 03:00:04;;;;;;;20.95;11.07;;;;;;;8.06;100.00;100727.50;5026147;28;20041;-76
2023/11/23 03:02:29;;;;;;;25.55;10.95;;;;;;;8.05;100.00;100731.97;5025440;28;20056;-75
2023/11/23 03:04:55;;;;;;;27.63;13.10;;;;;;;8.06;100.00;100725.69;5020774;28;20073;-75
2023/11/23 03:07:20;;;;;;;27.03;11.10;;;;;;;8.12;100.00;100717.09;5023465;28;20284;-76
2023/11/23 03:09:45;;;;;;;22.17;10.40;;;;;;;8.06;100.00;100714.22;5024958;28;20025;-76
2023/11/23 03:12:11;;;;;;;25.03;10.43;;;;;;;8.15;100.00;100713.34;5025620;28;20033;-76
2023/11/23 03:14:37;;;;;;;23.60;9.73;;;;;;;8.17;100.00;100712.19;5025351;28;20044;-76
2023/11/23 03:17:03;;;;;;;22.25;10.20;;;;;;;8.11;100.00;100701.31;5026589;28;20041;-76
2023/11/23 03:19:28;;;;;;;;;;;;;;;8.15;100.00;100708.03;5026151;28;20559;-76
2023/11/23 03:21:54;;;;;;;24.67;11.68;;;;;;;8.14;100.00;100704.50;5025265;28;19943;-77
2023/11/23 03:24:19;;;;;;;19.47;10.93;;;;;;;8.25;100.00;100706.97;5025493;28;20030;-76
2023/11/23 03:26:45;;;;;;;21.80;10.40;;;;;;;8.35;100.00;100704.25;5026762;28;20029;-77
2023/11/23 03:29:11;;;;;;;22.33;12.00;;;;;;;8.29;100.00;100688.91;5026670;28;20033;-76
2023/11/23 03:31:37;;;;;;;22.30;10.73;;;;;;;8.32;100.00;100691.25;5025108;28;20025;-76
2023/11/23 03:34:02;;;;;;;;;;;;;;;8.34;100.00;100689.28;5025856;28;20034;-76
2023/11/23 03:36:28;;;;;;;21.42;10.93;;;;;;;8.29;100.00;100680.06;5025410;28;20464;-76
2023/11/23 03:38:56;;;;;;;23.50;10.88;;;;;;;8.39;100.00;100686.19;5025655;28;20060;-76
2023/11/23 03:41:21;;;;;;;22.50;11.57;;;;;;;8.40;100.00;100686.03;5008254;28;20132;-76
2023/11/23 03:43:47;;;;;;;29.80;12.13;;;;;;;8.38;100.00;100681.81;5026027;28;20275;-76
2023/11/23 03:46:12;;;;;;;26.30;11.37;;;;;;;8.50;100.00;100682.47;5026247;28;20040;-76
2023/11/23 03:48:37;;;;;;;29.10;11.83;;;;;;;8.54;100.00;100673.22;5008507;28;20544;-76
2023/11/23 03:51:03;;;;;;;25.10;12.00;;;;;;;8.57;100.00;100662.25;5025894;28;20030;-76
2023/11/23 03:53:28;;;;;;;25.15;12.18;;;;;;;8.51;100.00;100671.69;5024851;28;20025;-75
2023/11/23 03:55:53;;;;;;;22.77;12.37;;;;;;;8.56;100.00;100682.72;5024716;28;20095;-75
2023/11/23 03:58:19;;;;;;;30.87;13.70;;;;;;;8.62;100.00;100665.31;5026286;28;20044;-76
2023/11/23 04:00:44;;;;;;;30.37;14.47;;;;;;;8.67;100.00;100657.72;5020837;28;20041;-76
2023/11/23 04:03:10;;;;;;;35.10;14.52;;;;;;;8.61;100.00;100658.31;5025065;28;20064;-75
2023/11/23 04:05:37;;;;;;;27.83;12.05;;;;;;;8.67;100.00;100655.06;5024339;28;20148;-76
2023/11/23 04:08:04;;;;;;;28.45;13.60;;;;;;;8.68;100.00;100658.56;5023891;28;20045;-76
2023/11/23 04:10:29;;;;;;;26.10;11.77;;;;;;;8.76;100.00;100655.97;5025759;28;20084;-76
2023/11/23 04:12:55;;;;;;;31.70;13.87;;;;;;;8.81;100.00;100653.69;5014503;28;20061;-76
2023/11/23 04:15:20;;;;;;;27.67;12.00;;;;;;;8.76;100.00;100630.19;5022142;28;20408;-75
2023/11/23 04:17:46;;;;;;;20.37;11.10;;;;;;;8.78;100.00;100640.66;5024188;28;20412;-76
2023/11/23 04:20:11;;;;;;;19.13;9.98;;;;;;;8.90;100.00;100654.56;5025885;28;20021;-76
2023/11/23 04:22:37;;;;;;;23.23;11.00;;;;;;;8.84;100.00;100640.88;5025357;28;20034;-76
2023/11/23 04:25:03;;;;;;;25.33;12.20;;;;;;;8.92;100.00;100625.97;5025510;28;20343;-76
2023/11/23 04:27:29;;;;;;;26.27;10.40;;;;;;;8.98;100.00;100641.34;5007394;28;20033;-76
2023/11/23 04:29:55;;;;;;;26.20;11.07;;;;;;;8.99;100.00;100641.19;5024553;28;20103;-76
2023/11/23 04:32:20;;;;;;;20.53;10.23;;;;;;;9.00;100.00;100648.19;5007885;28;20095;-76
2023/11/23 04:34:46;;;;;;;21.93;8.47;;;;;;;9.12;100.00;100642.59;5007701;28;20330;-76
2023/11/23 04:37:12;;;;;;;;;;;;;;;9.17;100.00;100633.16;5025950;28;20037;-76
2023/11/23 04:39:37;;;;;;;22.20;5.93;;;;;;;9.14;100.00;100617.50;5025634;28;19915;-76
2023/11/23 04:42:02;;;;;;;21.90;6.93;;;;;;;9.25;100.00;100606.56;5019999;28;20053;-76
2023/11/23 04:44:28;;;;;;;26.33;7.68;;;;;;;9.18;100.00;100586.88;5022684;28;20456;-77
2023/11/23 04:46:53;;;;;;;26.00;6.17;;;;;;;9.29;100.00;100583.09;5024196;28;20059;-76
2023/11/23 04:49:19;;;;;;;20.07;6.27;;;;;;;9.29;100.00;100581.31;5025604;28;20037;-77
2023/11/23 04:51:45;;;;;;;22.20;5.25;;;;;;;9.26;100.00;100578.94;5023708;28;20033;-76
2023/11/23 04:54:10;;;;;;;28.75;4.93;;;;;;;9.27;100.00;100582.44;5024064;28;20056;-76
2023/11/23 04:56:36;;;;;;;22.00;5.37;;;;;;;9.33;100.00;100591.63;5007416;28;20041;-77
2023/11/23 04:59:04;;;;;;;16.10;4.70;;;;;;;9.37;100.00;100577.00;5024424;28;20025;-76
2023/11/23 05:01:30;;;;;;;18.58;4.75;;;;;;;9.36;100.00;100573.47;5023670;28;20096;-76
2023/11/23 05:03:55;;;;;;;15.83;4.60;;;;;;;9.38;100.00;100570.66;5025341;28;20033;-76
2023/11/23 05:06:21;;;;;;;21.83;4.30;;;;;;;9.40;100.00;100563.34;5024042;28;20087;-76
2023/11/23 05:08:47;;;;;;;21.38;4.72;;;;;;;9.49;100.00;100560.56;5023956;28;20036;-76
2023/11/23 05:11:12;;;;;;;21.73;4.30;;;;;;;9.42;100.00;100545.38;5025068;28;20033;-76
2023/11/23 05:13:38;;;;;;;28.43;6.53;;;;;;;9.52;100.00;100559.41;5024985;28;20029;-77
2023/11/23 05:16:05;;;;;;;17.02;4.05;;;;;;;9.49;100.00;100538.41;5023993;28;20041;-76
2023/11/23 05:18:31;;;;;;;30.90;5.53;;;;;;;9.56;100.00;100547.44;5026122;28;20116;-76
2023/11/23 05:20:56;;;;;;;28.10;4.82;;;;;;;9.63;100.00;100555.63;5017444;28;20105;-76
2023/11/23 05:23:22;;;;;;;22.30;4.43;;;;;;;9.60;100.00;100551.47;5040853;28;20396;-76
2023/11/23 05:25:47;;;;;;;23.10;4.50;;;;;;;9.64;100.00;100550.13;5028718;28;20328;-77
2023/11/23 05:28:12;;;;;;;16.70;4.47;;;;;;;9.57;100.00;100538.44;5028204;28;20029;-76
2023/11/23 05:30:39;;;;;;;23.40;5.13;;;;;;;9.62;100.00;100540.63;5028724;28;20115;-77
2023/11/23 05:33:04;;;;;;;28.45;5.60;;;;;;;9.73;100.00;100543.00;5027865;28;20037;-77
2023/11/23 05:35:30;;;;;;;32.83;5.40;;;;;;;9.69;100.00;100536.31;5022441;28;20037;-77
2023/11/23 05:37:56;;;;;;;29.63;5.22;;;;;;;9.73;100.00;100540.31;5027653;28;20047;-76
2023/11/23 05:40:22;;;;;;;36.15;5.55;;;;;;;9.79;100.00;100533.53;5028859;28;20045;-76
2023/11/23 05:42:49;;;;;;;28.70;6.03;;;;;;;9.81;100.00;100523.50;5027183;28;20152;-76
2023/11/23 05:45:15;;;;;;;29.02;4.90;;;;;;;9.77;100.00;100516.84;5027516;28;20740;-77
2023/11/23 05:47:40;;;;;;;36.15;6.93;;;;;;;9.82;100.00;100517.19;5020212;28;20038;-77
2023/11/23 05:50:06;;;;;;;32.33;6.40;;;;;;;9.75;100.00;100502.84;5027406;28;20385;-77
2023/11/23 05:52:32;;;;;;;31.35;6.53;;;;;;;9.80;100.00;100511.19;5028225;28;20025;-76
2023/11/23 05:54:57;;;;;;;30.17;5.22;;;;;;;9.77;100.00;100520.34;5029011;28;20396;-77
2023/11/23 05:57:23;;;;;;;39.08;7.75;;;;;;;9.80;100.00;100513.84;5029394;28;20072;-77
2023/11/23 05:59:49;;;;;;;22.88;5.38;;;;;;;9.79;100.00;100498.88;5028031;28;20798;-76
2023/11/23 06:02:15;;;;;;;23.75;6.63;;;;;;;9.82;100.00;100498.53;5024843;28;20037;-77
2023/11/23 06:04:45;;;;;;;28.38;4.57;;;;;;;9.87;100.00;100509.53;5029986;28;20068;-77
2023/11/23 06:07:10;;;;;;;36.55;6.30;;;;;;;9.84;100.00;100496.53;5027501;28;20041;-77
2023/11/23 06:09:36;;;;;;;43.20;7.03;;;;;;;9.82;100.00;100495.88;5012780;28;20026;-77
2023/11/23 06:12:02;;;;;;;32.67;6.28;;;;;;;9.89;100.00;100494.22;5028233;28;20144;-77
2023/11/23 06:14:28;;;;;;;39.72;7.45;;;;;;;9.82;100.00;100490.53;5028568;28;20059;-77
2023/11/23 06:16:53;;;;;;;35.67;5.30;;;;;;;9.77;100.00;100480.38;5030710;28;20073;-77
2023/11/23 06:19:18;;;;;;;29.83;5.47;;;;;;;9.81;100.00;100483.53;5009273;28;20603;-77
2023/11/23 06:21:45;;;;;;;39.23;7.53;;;;;;;9.85;100.00;100482.19;5027039;28;20037;-77
2023/11/23 06:24:10;;;;;;;33.22;5.90;;;;;;;9.81;100.00;100472.84;5027219;28;20038;-77
2023/11/23 06:26:35;;;;;;;30.77;7.43;;;;;;;9.80;100.00;100469.34;5026845;28;20112;-76
2023/11/23 06:29:01;;;;;;;35.37;4.73;;;;;;;9.72;100.00;100470.19;5028339;28;20096;-76
2023/11/23 06:31:27;;;;;;;30.87;5.93;;;;;;;9.72;100.00;100467.53;5025697;28;20041;-76
2023/11/23 06:33:53;;;;;;;22.65;4.82;;;;;;;9.82;100.00;100461.22;5024089;28;20032;-76
2023/11/23 06:36:18;;;;;;;33.83;8.50;;;;;;;9.84;100.00;100445.88;5010942;28;20498;-76
2023/11/23 06:38:43;;;;;;;33.47;6.27;;;;;;;9.89;100.00;100454.22;5026227;28;20041;-77
2023/11/23 06:41:19;;;;;;;36.00;5.57;;;;;;;9.85;100.00;100456.38;5026449;28;20104;-77
2023/11/23 06:43:46;;;;;;;;;;;;;;;9.75;100.00;100438.88;5026508;28;20198;-77
2023/11/23 06:46:11;;;;;;;31.63;4.78;;;;;;;9.73;100.00;100444.34;5027715;28;19913;-77
2023/11/23 06:48:36;;;;;;;24.57;4.77;;;;;;;9.80;100.00;100453.38;5027633;28;20033;-76
2023/11/23 06:51:02;;;;;;;30.87;5.73;;;;;;;9.80;100.00;100448.03;5009197;28;20029;-76
2023/11/23 06:53:28;;;;;;;25.53;5.73;;;;;;;9.85;100.00;100442.19;5027682;28;20033;-76
2023/11/23 06:55:54;;;;;;;40.95;7.07;;;;;;;9.83;100.00;100433.53;5026364;28;20029;-77
2023/11/23 06:58:21;;;;;;;;;;;;;;;9.88;100.00;100436.53;5028311;28;20044;-77
2023/11/23 07:00:46;;;;;;;29.83;5.95;;;;;;;9.84;100.00;100416.56;5026341;28;19921;-77
2023/11/23 07:03:12;;;;;;;34.63;6.70;;;;;;;9.80;100.00;100409.88;5026662;28;20365;-77
2023/11/23 07:05:37;;;;;;;31.43;6.37;;;;;;;9.82;100.00;100416.72;5026006;28;20036;-77
2023/11/23 07:08:03;;;;;;;41.10;7.33;;;;;;;9.83;100.00;100398.88;5016572;28;20448;-76
2023/11/23 07:10:28;;;;;;;28.23;5.40;;;;;;;9.86;100.00;100404.72;5024321;28;20666;-76
2023/11/23 07:12:54;;;;;;;36.03;7.53;;;;;;;9.90;100.00;100405.22;5027244;28;20312;-77
2023/11/23 07:15:23;;;;;;;29.90;6.43;;;;;;;9.96;100.00;100399.22;5027484;28;20527;-76
2023/11/23 07:17:49;;;;;;;32.03;5.57;;;;;;;9.93;100.00;100394.22;5027172;28;20033;-76
2023/11/23 07:20:14;;;;;;;40.17;5.63;;;;;;;9.97;100.00;100398.19;5026225;28;20032;-76
2023/11/23 07:22:40;;;;;;;36.33;6.38;;;;;;;9.96;100.00;100391.22;5026829;28;20045;-76
2023/11/23 07:25:10;;;;;;;34.20;5.72;;;;;;;9.91;100.00;100396.22;5017555;28;20030;-77
2023/11/23 07:27:36;;;;;;;43.35;8.23;;;;;;;9.93;100.00;100392.38;5025489;28;20040;-76
2023/11/23 07:30:05;;;;;;;36.17;6.15;;;;;;;9.86;100.00;100383.38;5025861;28;20041;-76
2023/11/23 07:32:31;;;;;;;32.30;5.50;;;;;;;9.92;100.00;100389.88;5026943;28;20033;-76
2023/11/23 07:34:56;;;;;;;33.40;7.00;;;;;;;9.95;100.00;100376.22;5026811;28;20587;-76
2023/11/23 07:37:22;;;;;;;45.27;9.10;;;;;;;10.01;100.00;100378.22;5009647;28;20183;-76
2023/11/23 07:39:47;;;;;;;33.60;6.33;;;;;;;9.97;100.00;100376.88;5026380;28;20115;-77
2023/11/23 07:42:12;;;;;;;43.43;6.57;;;;;;;10.01;100.00;100388.88;5026463;28;20329;-76
2023/11/23 07:44:38;;;;;;;30.07;5.30;;;;;;;9.98;100.00;100380.38;5025200;28;20044;-76
2023/11/23 07:47:04;;;;;;;44.70;7.40;;;;;;;10.01;100.00;100380.06;5025556;28;20127;-76
2023/11/23 07:49:30;;;;;;;43.65;8.52;;;;;;;9.95;100.00;100354.91;5025594;28;20053;-76
2023/11/23 07:51:55;;;;;;;43.07;7.83;;;;;;;10.01;100.00;100348.88;5026932;28;20603;-76
2023/11/23 07:54:21;;;;;;;29.40;7.30;;;;;;;10.01;100.00;100343.53;5026684;28;20389;-77
2023/11/23 07:56:46;;;;;;;36.08;7.93;;;;;;;10.04;100.00;100340.53;5026747;28;20032;-76
2023/11/23 07:59:12;;;;;;;45.50;6.97;;;;;;;10.07;100.00;100336.72;5025499;28;20030;-77
2023/11/23 08:01:37;;;;;;;28.40;5.77;;;;;;;10.03;100.00;100338.03;5024939;28;20033;-77
2023/11/23 08:04:03;;;;;;;38.17;6.97;;;;;;;10.02;100.00;100347.88;5025060;28;20599;-76
2023/11/23 08:06:28;;;;;;;41.78;8.15;;;;;;;10.05;100.00;100344.88;5025149;28;20595;-76
2023/11/23 08:08:54;;;;;;;44.97;6.68;;;;;;;10.14;100.00;100348.38;4992378;28;20508;-76
2023/11/23 08:11:21;;;;;;;37.10;7.10;;;;;;;10.10;100.00;100353.19;5025125;28;20355;-76
2023/11/23 08:13:46;;;;;;;31.27;6.03;;;;;;;10.11;100.00;100343.34;5016593;28;20291;-77
2023/11/23 08:16:12;;;;;;;35.22;6.05;;;;;;;10.11;100.00;100343.34;5026623;28;20048;-76
2023/11/23 08:18:37;;;;;;;30.95;7.03;;;;;;;9.98;100.00;100327.88;5025213;28;20033;-76
2023/11/23 08:21:04;;;;;;;38.33;5.63;;;;;;;10.13;100.00;100328.84;5006538;28;20844;-76
2023/11/23 08:23:29;;;;;;;;;;;;;;;10.05;100.00;100325.38;5023483;28;20041;-77
2023/11/23 08:25:55;;;;;;;29.67;5.65;;;;;;;10.09;100.00;100316.88;5024897;28;19917;-77
2023/11/23 08:28:21;;;;;;;33.45;6.60;;;;;;;10.09;100.00;100319.53;5027202;28;20587;-77
2023/11/23 08:30:47;;;;;;;51.40;8.23;;;;;;;10.04;100.00;100300.50;5026746;28;20055;-77
2023/11/23 08:33:13;;;;;;;33.58;7.40;;;;;;;10.16;100.00;100317.03;5025932;28;20032;-77
2023/11/23 08:35:39;;;;;;;32.92;6.15;;;;;;;10.13;100.00;100315.50;5025913;28;20033;-78
2023/11/23 08:38:05;;;;;;;34.17;5.90;;;;;;;10.21;100.00;100324.50;5028195;28;20041;-77
2023/11/23 08:40:30;;;;;;;36.00;5.82;;;;;;;10.20;100.00;100328.16;5026819;28;20492;-78
2023/11/23 08:42:55;;;;;;;36.88;7.15;;;;;;;10.25;100.00;100313.31;5027488;28;20048;-77
2023/11/23 08:45:21;;;;;;;40.67;8.67;;;;;;;10.23;100.00;100288.66;5029124;28;20029;-77
2023/11/23 08:47:46;;;;;;;37.27;8.10;;;;;;;10.29;100.00;100304.00;5027493;28;20088;-77
2023/11/23 08:50:13;;;;;;;37.60;6.87;;;;;;;10.24;100.00;100294.81;5026409;28;20272;-77
2023/11/23 08:52:39;;;;;;;36.92;5.50;;;;;;;10.33;100.00;100293.81;5026781;28;20064;-77
2023/11/23 08:55:05;;;;;;;31.48;6.18;;;;;;;10.30;100.00;100276.31;5027352;28;20116;-77
2023/11/23 08:57:31;;;;;;;30.65;6.40;;;;;;;10.27;100.00;100281.13;5011093;28;20084;-76
2023/11/23 08:59:56;;;;;;;32.23;5.70;;;;;;;10.30;100.00;100275.47;5025787;28;20065;-77
2023/11/23 09:02:22;;;;;;;36.37;6.13;;;;;;;10.40;100.00;100256.63;5026193;28;20467;-77
2023/11/23 09:04:48;;;;;;;35.13;5.33;;;;;;;10.34;100.00;100253.59;5026352;28;20338;-77
2023/11/23 09:07:13;;;;;;;34.83;6.15;;;;;;;10.45;100.00;100248.91;5026275;28;20092;-76
2023/11/23 09:09:39;;;;;;;34.43;5.80;;;;;;;10.43;100.00;100249.06;5026514;28;20049;-76
2023/11/23 09:12:05;;;;;;;28.70;5.22;;;;;;;10.54;100.00;100247.88;5026771;28;20045;-77
2023/11/23 09:14:30;;;;;;;38.83;6.50;;;;;;;10.54;100.00;100226.53;5025543;28;20108;-77
2023/11/23 09:16:56;;;;;;;32.57;5.63;;;;;;;10.54;100.00;100222.00;5018483;28;20044;-76
2023/11/23 09:19:22;;;;;;;31.05;7.50;;;;;;;10.59;100.00;100224.16;5013461;28;20513;-77
2023/11/23 09:21:47;;;;;;;47.33;6.80;;;;;;;10.52;100.00;100213.34;5024091;28;20037;-76
2023/11/23 09:24:14;;;;;;;34.40;5.83;;;;;;;10.54;100.00;100211.31;5026901;28;20865;-77
2023/11/23 09:26:40;;;;;;;35.95;5.15;;;;;;;10.57;100.00;100215.47;5025671;28;20041;-77
2023/11/23 09:29:05;;;;;;;36.75;6.68;;;;;;;10.67;100.00;100207.25;5025856;28;20080;-77
2023/11/23 09:31:32;;;;;;;36.47;7.37;;;;;;;10.57;100.00;100205.63;5014131;28;20440;-77
2023/11/23 09:33:57;;;;;;;37.17;7.35;;;;;;;10.58;100.00;100225.13;5009730;28;20052;-77
2023/11/23 09:36:23;;;;;;;28.37;5.80;;;;;;;10.50;100.00;100215.34;5025316;28;20548;-77
2023/11/23 09:38:49;;;;;;;40.47;7.03;;;;;;;10.56;100.00;100224.50;5026741;28;20037;-77
2023/11/23 09:41:22;;;;;;;36.47;5.68;;;;;;;10.56;100.00;100209.31;5027605;28;20455;-77
2023/11/23 09:43:51;;;;;;;36.28;6.63;;;;;;;10.63;100.00;100204.13;5027292;28;20048;-77
2023/11/23 09:46:19;;;;;;;34.50;6.20;;;;;;;10.68;100.00;100198.25;5027654;28;20122;-77
2023/11/23 09:48:45;;;;;;;29.70;6.07;;;;;;;10.56;100.00;100197.81;5009930;28;20046;-76
2023/11/23 09:51:11;;;;;;;27.70;5.90;;;;;;;10.62;100.00;100193.59;5027678;28;20091;-77
2023/11/23 09:53:37;;;;;;;35.78;5.53;;;;;;;10.60;100.00;100203.63;5028036;28;20072;-77
2023/11/23 09:56:06;;;;;;;36.33;7.18;;;;;;;10.73;100.00;100193.19;5027951;28;20037;-77
2023/11/23 09:58:32;;;;;;;41.05;5.03;;;;;;;10.63;100.00;100177.41;5029715;28;20033;-77
2023/11/23 10:01:02;;;;;;;27.30;6.00;;;;;;;10.66;100.00;100181.56;5036702;28;20036;-77
2023/11/23 10:03:33;;;;;;;38.50;6.15;;;;;;;10.69;100.00;100183.88;5028100;28;20424;-77
2023/11/23 10:05:59;;;;;;;32.20;6.13;;;;;;;10.57;100.00;100172.78;5024409;28;20503;-77
2023/11/23 10:08:27;;;;;;;30.00;5.88;;;;;;;10.66;100.00;100176.22;5030973;28;20469;-77
2023/11/23 10:10:52;;;;;;;34.30;5.35;;;;;;;10.68;100.00;100166.22;5031890;28;20087;-77
2023/11/23 10:13:19;;;;;;;44.30;7.10;;;;;;;10.66;100.00;100181.56;5031910;28;20068;-77
2023/11/23 10:15:45;;;;;;;29.95;6.07;;;;;;;10.67;100.00;100173.38;5032171;28;20041;-76
2023/11/23 10:18:10;;;;;;;42.90;5.50;;;;;;;10.73;100.00;100171.84;5030856;28;20168;-77
2023/11/23 10:20:36;;;;;;;28.57;5.53;;;;;;;10.76;100.00;100169.63;5030621;28;20037;-77
2023/11/23 10:23:03;;;;;;;37.38;5.00;;;;;;;10.89;100.00;100158.38;5031036;28;20078;-77
2023/11/23 10:25:35;;;;;;;31.10;5.45;;;;;;;10.90;100.00;100156.53;5030882;28;20047;-76
2023/11/23 10:28:01;;;;;;;33.22;6.28;;;;;;;10.82;100.00;100138.75;5027593;28;20025;-77
2023/11/23 10:30:31;;;;;;;22.17;4.40;;;;;;;10.73;100.00;100137.13;5018825;28;20018;-77
2023/11/23 10:32:57;;;;;;;45.63;6.93;;;;;;;10.80;100.00;100134.59;5034372;28;20112;-78
2023/11/23 10:35:28;;;;;;;31.13;5.90;;;;;;;10.75;100.00;100127.09;5036372;28;20387;-78
2023/11/23 10:37:54;;;;;;;26.70;5.13;;;;;;;10.83;100.00;100123.53;5034190;28;20931;-78
2023/11/23 10:40:28;;;;;;;28.45;5.38;;;;;;;10.82;100.00;100106.69;5035171;28;20116;-78
2023/11/23 10:42:54;;;;;;;34.78;7.15;;;;;;;10.82;100.00;100114.69;5034500;28;20065;-77
2023/11/23 10:45:21;;;;;;;32.65;4.75;;;;;;;10.87;100.00;100108.81;5033617;28;20038;-77
2023/11/23 10:47:47;;;;;;;26.67;4.82;;;;;;;10.89;100.00;100099.63;5033283;28;20132;-77
2023/11/23 10:50:13;;;;;;;16.98;4.00;;;;;;;10.83;100.00;100084.31;5034078;28;20032;-77
2023/11/23 10:52:43;;;;;;;37.33;4.93;;;;;;;11.05;100.00;100095.13;5030871;28;20097;-77
2023/11/23 10:55:10;;;;;;;29.08;6.93;;;;;;;10.96;100.00;100089.88;5016925;28;20124;-77
2023/11/23 10:57:44;;;;;;;;;;;;;;;11.05;100.00;100087.09;5033969;28;20052;-77
2023/11/23 11:00:15;;;;;;;38.10;6.53;;;;;;;10.90;100.00;100089.75;5032651;28;19936;-77
2023/11/23 11:02:43;;;;;;;36.28;6.68;;;;;;;10.79;100.00;100101.69;5032874;28;20037;-77
2023/11/23 11:05:28;;;;;;;41.42;5.63;;;;;;;10.93;100.00;100100.06;5032704;28;20049;-78
2023/11/23 11:08:17;;;;;;;28.60;6.88;;;;;;;10.85;100.00;100117.00;5031570;28;20148;-78
2023/11/23 11:10:51;;;;;;;28.55;6.70;;;;;;;10.71;100.00;100112.44;5024051;28;20092;-77